sensor_id;sensor_type;location;lat;lon;timestamp;P1;durP1;ratioP1;P2;durP2;ratioP2
19189;SDS011;9727;50.200;19.038;2023-08-31T00:00:40;12.47;;;10.77;;
19189;SDS011;9727;50.200;19.038;2023-08-31T00:03:07;13.37;;;10.50;;
19189;SDS011;9727;50.200;19.038;2023-08-31T00:05:37;14.70;;;11.53;;
19189;SDS011;9727;50.200;19.038;2023-08-31T00:08:05;15.17;;;10.23;;
19189;SDS011;9727;50.200;19.038;2023-08-31T00:10:36;15.07;;;10.47;;
19189;SDS011;9727;50.200;19.038;2023-08-31T00:13:03;14.63;;;10.80;;
19189;SDS011;9727;50.200;19.038;2023-08-31T00:15:29;14.63;;;11.50;;
19189;SDS011;9727;50.200;19.038;2023-08-31T00:17:57;14.77;;;10.70;;
19189;SDS011;9727;50.200;19.038;2023-08-31T00:20:24;18.10;;;11.30;;
19189;SDS011;9727;50.200;19.038;2023-08-31T00:22:51;12.73;;;9.90;;
19189;SDS011;9727;50.200;19.038;2023-08-31T00:25:18;14.30;;;10.50;;
19189;SDS011;9727;50.200;19.038;2023-08-31T00:27:46;15.07;;;10.90;;
19189;SDS011;9727;50.200;19.038;2023-08-31T00:30:13;10.93;;;9.20;;
19189;SDS011;9727;50.200;19.038;2023-08-31T00:32:40;14.93;;;9.60;;
19189;SDS011;9727;50.200;19.038;2023-08-31T00:35:07;17.03;;;10.47;;
19189;SDS011;9727;50.200;19.038;2023-08-31T00:37:37;11.50;;;9.60;;
19189;SDS011;9727;50.200;19.038;2023-08-31T00:40:04;15.13;;;9.63;;
19189;SDS011;9727;50.200;19.038;2023-08-31T00:42:32;14.83;;;10.43;;
19189;SDS011;9727;50.200;19.038;2023-08-31T00:45:04;14.53;;;10.00;;
19189;SDS011;9727;50.200;19.038;2023-08-31T00:47:32;16.57;;;9.67;;
19189;SDS011;9727;50.200;19.038;2023-08-31T00:50:03;13.33;;;9.43;;
19189;SDS011;9727;50.200;19.038;2023-08-31T00:52:32;11.07;;;9.43;;
19189;SDS011;9727;50.200;19.038;2023-08-31T00:55:07;12.17;;;9.27;;
19189;SDS011;9727;50.200;19.038;2023-08-31T00:57:39;12.97;;;9.90;;
19189;SDS011;9727;50.200;19.038;2023-08-31T01:00:09;16.40;;;9.43;;
19189;SDS011;9727;50.200;19.038;2023-08-31T01:02:40;15.97;;;9.57;;
19189;SDS011;9727;50.200;19.038;2023-08-31T01:05:15;11.20;;;9.30;;
19189;SDS011;9727;50.200;19.038;2023-08-31T01:07:46;13.17;;;10.10;;
19189;SDS011;9727;50.200;19.038;2023-08-31T01:10:17;13.70;;;9.80;;
19189;SDS011;9727;50.200;19.038;2023-08-31T01:12:50;12.07;;;10.40;;
19189;SDS011;9727;50.200;19.038;2023-08-31T01:15:18;14.67;;;11.20;;
19189;SDS011;9727;50.200;19.038;2023-08-31T01:17:46;21.77;;;10.80;;
19189;SDS011;9727;50.200;19.038;2023-08-31T01:20:14;16.97;;;12.03;;
19189;SDS011;9727;50.200;19.038;2023-08-31T01:22:43;14.70;;;11.13;;
19189;SDS011;9727;50.200;19.038;2023-08-31T01:25:11;15.93;;;12.37;;
19189;SDS011;9727;50.200;19.038;2023-08-31T01:27:38;15.37;;;12.00;;
19189;SDS011;9727;50.200;19.038;2023-08-31T01:30:06;17.97;;;13.03;;
19189;SDS011;9727;50.200;19.038;2023-08-31T01:32:38;15.40;;;12.40;;
19189;SDS011;9727;50.200;19.038;2023-08-31T01:35:10;14.37;;;12.20;;
19189;SDS011;9727;50.200;19.038;2023-08-31T01:37:39;15.13;;;12.43;;
19189;SDS011;9727;50.200;19.038;2023-08-31T01:40:09;16.13;;;12.33;;
19189;SDS011;9727;50.200;19.038;2023-08-31T01:42:39;17.90;;;12.63;;
19189;SDS011;9727;50.200;19.038;2023-08-31T01:45:06;17.27;;;13.03;;
19189;SDS011;9727;50.200;19.038;2023-08-31T01:47:35;14.90;;;12.43;;
19189;SDS011;9727;50.200;19.038;2023-08-31T01:50:05;18.57;;;13.30;;
19189;SDS011;9727;50.200;19.038;2023-08-31T01:52:31;14.23;;;12.53;;
19189;SDS011;9727;50.200;19.038;2023-08-31T01:54:58;15.70;;;12.70;;
19189;SDS011;9727;50.200;19.038;2023-08-31T01:57:28;17.07;;;12.57;;
19189;SDS011;9727;50.200;19.038;2023-08-31T01:59:56;15.67;;;12.07;;
19189;SDS011;9727;50.200;19.038;2023-08-31T02:02:22;15.83;;;13.03;;
19189;SDS011;9727;50.200;19.038;2023-08-31T02:04:49;17.00;;;11.70;;
19189;SDS011;9727;50.200;19.038;2023-08-31T02:07:16;15.40;;;12.47;;
19189;SDS011;9727;50.200;19.038;2023-08-31T02:09:43;16.67;;;11.90;;
19189;SDS011;9727;50.200;19.038;2023-08-31T02:12:09;17.77;;;12.37;;
19189;SDS011;9727;50.200;19.038;2023-08-31T02:14:39;17.43;;;12.30;;
19189;SDS011;9727;50.200;19.038;2023-08-31T02:17:07;16.27;;;11.70;;
19189;SDS011;9727;50.200;19.038;2023-08-31T02:19:38;14.37;;;11.37;;
19189;SDS011;9727;50.200;19.038;2023-08-31T02:22:05;15.17;;;10.90;;
19189;SDS011;9727;50.200;19.038;2023-08-31T02:24:31;16.87;;;11.33;;
19189;SDS011;9727;50.200;19.038;2023-08-31T02:27:00;14.83;;;10.40;;
19189;SDS011;9727;50.200;19.038;2023-08-31T02:29:27;17.17;;;11.50;;
19189;SDS011;9727;50.200;19.038;2023-08-31T02:31:53;15.60;;;10.53;;
19189;SDS011;9727;50.200;19.038;2023-08-31T02:34:21;15.43;;;9.87;;
19189;SDS011;9727;50.200;19.038;2023-08-31T02:36:48;14.20;;;10.40;;
19189;SDS011;9727;50.200;19.038;2023-08-31T02:39:14;13.23;;;10.37;;
19189;SDS011;9727;50.200;19.038;2023-08-31T02:41:41;13.57;;;10.47;;
19189;SDS011;9727;50.200;19.038;2023-08-31T02:44:08;14.80;;;11.00;;
19189;SDS011;9727;50.200;19.038;2023-08-31T02:46:37;15.17;;;10.43;;
19189;SDS011;9727;50.200;19.038;2023-08-31T02:49:04;15.90;;;10.43;;
19189;SDS011;9727;50.200;19.038;2023-08-31T02:51:32;13.10;;;9.87;;
19189;SDS011;9727;50.200;19.038;2023-08-31T02:54:02;13.27;;;10.17;;
19189;SDS011;9727;50.200;19.038;2023-08-31T02:56:29;15.23;;;10.73;;
19189;SDS011;9727;50.200;19.038;2023-08-31T02:58:56;13.37;;;10.83;;
19189;SDS011;9727;50.200;19.038;2023-08-31T03:01:22;13.27;;;10.40;;
19189;SDS011;9727;50.200;19.038;2023-08-31T03:03:49;15.33;;;10.67;;
19189;SDS011;9727;50.200;19.038;2023-08-31T03:06:16;19.03;;;11.43;;
19189;SDS011;9727;50.200;19.038;2023-08-31T03:08:44;13.73;;;10.67;;
19189;SDS011;9727;50.200;19.038;2023-08-31T03:11:11;15.73;;;10.27;;
19189;SDS011;9727;50.200;19.038;2023-08-31T03:13:39;14.80;;;10.63;;
19189;SDS011;9727;50.200;19.038;2023-08-31T03:16:06;11.90;;;10.07;;
19189;SDS011;9727;50.200;19.038;2023-08-31T03:18:32;20.67;;;10.60;;
19189;SDS011;9727;50.200;19.038;2023-08-31T03:21:04;16.33;;;10.20;;
19189;SDS011;9727;50.200;19.038;2023-08-31T03:23:31;13.33;;;10.70;;
19189;SDS011;9727;50.200;19.038;2023-08-31T03:25:59;13.73;;;10.63;;
19189;SDS011;9727;50.200;19.038;2023-08-31T03:28:25;14.47;;;10.57;;
19189;SDS011;9727;50.200;19.038;2023-08-31T03:30:55;13.97;;;10.97;;
19189;SDS011;9727;50.200;19.038;2023-08-31T03:33:21;13.67;;;10.23;;
19189;SDS011;9727;50.200;19.038;2023-08-31T03:35:48;14.93;;;11.63;;
19189;SDS011;9727;50.200;19.038;2023-08-31T03:38:15;13.43;;;10.77;;
19189;SDS011;9727;50.200;19.038;2023-08-31T03:40:41;18.20;;;12.57;;
19189;SDS011;9727;50.200;19.038;2023-08-31T03:43:10;20.30;;;13.00;;
19189;SDS011;9727;50.200;19.038;2023-08-31T03:45:37;19.70;;;13.13;;
19189;SDS011;9727;50.200;19.038;2023-08-31T03:48:04;19.53;;;14.70;;
19189;SDS011;9727;50.200;19.038;2023-08-31T03:50:30;18.93;;;14.50;;
19189;SDS011;9727;50.200;19.038;2023-08-31T03:52:57;20.17;;;15.07;;
19189;SDS011;9727;50.200;19.038;2023-08-31T03:55:23;19.03;;;15.10;;
19189;SDS011;9727;50.200;19.038;2023-08-31T03:57:50;18.63;;;14.63;;
19189;SDS011;9727;50.200;19.038;2023-08-31T04:00:18;21.27;;;15.93;;
19189;SDS011;9727;50.200;19.038;2023-08-31T04:02:44;20.83;;;15.50;;
19189;SDS011;9727;50.200;19.038;2023-08-31T04:05:10;22.57;;;16.47;;
19189;SDS011;9727;50.200;19.038;2023-08-31T04:07:39;22.03;;;15.23;;
19189;SDS011;9727;50.200;19.038;2023-08-31T04:10:06;23.03;;;15.50;;
19189;SDS011;9727;50.200;19.038;2023-08-31T04:12:39;20.37;;;15.53;;
19189;SDS011;9727;50.200;19.038;2023-08-31T04:15:06;21.03;;;15.37;;
19189;SDS011;9727;50.200;19.038;2023-08-31T04:17:44;21.53;;;15.30;;
19189;SDS011;9727;50.200;19.038;2023-08-31T04:20:10;21.50;;;15.37;;
19189;SDS011;9727;50.200;19.038;2023-08-31T04:22:37;23.07;;;15.00;;
19189;SDS011;9727;50.200;19.038;2023-08-31T04:25:04;20.93;;;14.80;;
19189;SDS011;9727;50.200;19.038;2023-08-31T04:27:31;20.43;;;15.97;;
19189;SDS011;9727;50.200;19.038;2023-08-31T04:29:58;18.93;;;15.43;;
19189;SDS011;9727;50.200;19.038;2023-08-31T04:32:24;17.80;;;14.20;;
19189;SDS011;9727;50.200;19.038;2023-08-31T04:34:53;18.37;;;14.53;;
19189;SDS011;9727;50.200;19.038;2023-08-31T04:37:21;18.70;;;13.93;;
19189;SDS011;9727;50.200;19.038;2023-08-31T04:39:47;19.63;;;15.07;;
19189;SDS011;9727;50.200;19.038;2023-08-31T04:42:14;19.67;;;15.10;;
19189;SDS011;9727;50.200;19.038;2023-08-31T04:44:42;18.53;;;13.83;;
19189;SDS011;9727;50.200;19.038;2023-08-31T04:47:09;16.33;;;13.27;;
19189;SDS011;9727;50.200;19.038;2023-08-31T04:49:38;19.07;;;14.27;;
19189;SDS011;9727;50.200;19.038;2023-08-31T04:52:06;18.70;;;12.37;;
19189;SDS011;9727;50.200;19.038;2023-08-31T04:54:36;16.07;;;12.53;;
19189;SDS011;9727;50.200;19.038;2023-08-31T04:57:03;16.63;;;12.90;;
19189;SDS011;9727;50.200;19.038;2023-08-31T04:59:32;16.93;;;12.80;;
19189;SDS011;9727;50.200;19.038;2023-08-31T05:02:05;16.87;;;13.40;;
19189;SDS011;9727;50.200;19.038;2023-08-31T05:04:31;18.87;;;13.03;;
19189;SDS011;9727;50.200;19.038;2023-08-31T05:06:58;15.83;;;12.07;;
19189;SDS011;9727;50.200;19.038;2023-08-31T05:09:26;16.33;;;12.17;;
19189;SDS011;9727;50.200;19.038;2023-08-31T05:11:57;17.77;;;12.63;;
19189;SDS011;9727;50.200;19.038;2023-08-31T05:14:24;14.73;;;11.60;;
19189;SDS011;9727;50.200;19.038;2023-08-31T05:16:50;14.97;;;11.73;;
19189;SDS011;9727;50.200;19.038;2023-08-31T05:19:17;14.77;;;12.50;;
19189;SDS011;9727;50.200;19.038;2023-08-31T05:21:44;16.23;;;12.40;;
19189;SDS011;9727;50.200;19.038;2023-08-31T05:24:15;15.07;;;12.50;;
19189;SDS011;9727;50.200;19.038;2023-08-31T05:26:44;16.80;;;11.63;;
19189;SDS011;9727;50.200;19.038;2023-08-31T05:29:11;13.77;;;11.93;;
19189;SDS011;9727;50.200;19.038;2023-08-31T05:31:40;13.70;;;11.83;;
19189;SDS011;9727;50.200;19.038;2023-08-31T05:34:09;15.70;;;11.73;;
19189;SDS011;9727;50.200;19.038;2023-08-31T05:36:39;13.47;;;11.03;;
19189;SDS011;9727;50.200;19.038;2023-08-31T05:39:06;12.83;;;11.33;;
19189;SDS011;9727;50.200;19.038;2023-08-31T05:41:39;13.07;;;10.23;;
19189;SDS011;9727;50.200;19.038;2023-08-31T05:44:07;12.17;;;9.97;;
19189;SDS011;9727;50.200;19.038;2023-08-31T05:46:38;12.57;;;9.50;;
19189;SDS011;9727;50.200;19.038;2023-08-31T05:49:05;11.80;;;10.17;;
19189;SDS011;9727;50.200;19.038;2023-08-31T05:51:32;9.90;;;8.63;;
19189;SDS011;9727;50.200;19.038;2023-08-31T05:54:08;12.47;;;8.50;;
19189;SDS011;9727;50.200;19.038;2023-08-31T05:56:40;9.47;;;8.07;;
19189;SDS011;9727;50.200;19.038;2023-08-31T05:59:08;12.00;;;7.70;;
19189;SDS011;9727;50.200;19.038;2023-08-31T06:01:40;10.40;;;8.17;;
19189;SDS011;9727;50.200;19.038;2023-08-31T06:04:07;10.87;;;8.00;;
19189;SDS011;9727;50.200;19.038;2023-08-31T06:06:38;12.90;;;7.00;;
19189;SDS011;9727;50.200;19.038;2023-08-31T06:09:05;9.53;;;8.10;;
19189;SDS011;9727;50.200;19.038;2023-08-31T06:11:32;9.30;;;7.10;;
19189;SDS011;9727;50.200;19.038;2023-08-31T06:14:04;9.77;;;7.57;;
19189;SDS011;9727;50.200;19.038;2023-08-31T06:16:40;14.07;;;8.07;;
19189;SDS011;9727;50.200;19.038;2023-08-31T06:19:06;9.13;;;7.63;;
19189;SDS011;9727;50.200;19.038;2023-08-31T06:21:41;10.83;;;7.67;;
19189;SDS011;9727;50.200;19.038;2023-08-31T06:24:08;8.63;;;7.50;;
19189;SDS011;9727;50.200;19.038;2023-08-31T06:26:38;10.53;;;8.40;;
19189;SDS011;9727;50.200;19.038;2023-08-31T06:29:04;9.93;;;7.80;;
19189;SDS011;9727;50.200;19.038;2023-08-31T06:31:40;11.47;;;7.67;;
19189;SDS011;9727;50.200;19.038;2023-08-31T06:34:07;9.03;;;7.77;;
19189;SDS011;9727;50.200;19.038;2023-08-31T06:36:40;8.43;;;6.73;;
19189;SDS011;9727;50.200;19.038;2023-08-31T06:39:07;10.20;;;7.80;;
19189;SDS011;9727;50.200;19.038;2023-08-31T06:41:39;9.73;;;8.03;;
19189;SDS011;9727;50.200;19.038;2023-08-31T06:44:06;10.67;;;8.60;;
19189;SDS011;9727;50.200;19.038;2023-08-31T06:46:32;9.80;;;8.63;;
19189;SDS011;9727;50.200;19.038;2023-08-31T06:49:05;10.47;;;7.30;;
19189;SDS011;9727;50.200;19.038;2023-08-31T06:51:32;9.80;;;8.10;;
19189;SDS011;9727;50.200;19.038;2023-08-31T06:54:06;7.43;;;6.67;;
19189;SDS011;9727;50.200;19.038;2023-08-31T06:56:33;8.13;;;6.60;;
19189;SDS011;9727;50.200;19.038;2023-08-31T06:59:03;7.93;;;6.60;;
19189;SDS011;9727;50.200;19.038;2023-08-31T07:01:31;7.40;;;6.47;;
19189;SDS011;9727;50.200;19.038;2023-08-31T07:04:04;9.20;;;6.10;;
19189;SDS011;9727;50.200;19.038;2023-08-31T07:06:34;9.07;;;5.73;;
19189;SDS011;9727;50.200;19.038;2023-08-31T07:09:03;5.63;;;4.47;;
19189;SDS011;9727;50.200;19.038;2023-08-31T07:11:30;5.43;;;4.13;;
19189;SDS011;9727;50.200;19.038;2023-08-31T07:14:05;4.40;;;3.70;;
19189;SDS011;9727;50.200;19.038;2023-08-31T07:16:32;6.27;;;4.07;;
19189;SDS011;9727;50.200;19.038;2023-08-31T07:19:04;3.83;;;3.33;;
19189;SDS011;9727;50.200;19.038;2023-08-31T07:21:30;4.97;;;3.40;;
19189;SDS011;9727;50.200;19.038;2023-08-31T07:23:58;5.17;;;3.43;;
19189;SDS011;9727;50.200;19.038;2023-08-31T07:26:26;3.60;;;2.83;;
19189;SDS011;9727;50.200;19.038;2023-08-31T07:28:53;3.78;;;2.70;;
19189;SDS011;9727;50.200;19.038;2023-08-31T07:31:20;3.80;;;2.77;;
19189;SDS011;9727;50.200;19.038;2023-08-31T07:33:46;4.35;;;2.90;;
19189;SDS011;9727;50.200;19.038;2023-08-31T07:36:13;5.17;;;2.90;;
19189;SDS011;9727;50.200;19.038;2023-08-31T07:38:40;5.10;;;2.83;;
19189;SDS011;9727;50.200;19.038;2023-08-31T07:41:08;3.43;;;2.77;;
19189;SDS011;9727;50.200;19.038;2023-08-31T07:43:39;4.90;;;2.75;;
19189;SDS011;9727;50.200;19.038;2023-08-31T07:46:05;4.60;;;2.53;;
19189;SDS011;9727;50.200;19.038;2023-08-31T07:48:32;4.07;;;2.70;;
19189;SDS011;9727;50.200;19.038;2023-08-31T07:51:03;2.65;;;2.30;;
19189;SDS011;9727;50.200;19.038;2023-08-31T07:53:31;2.47;;;2.10;;
19189;SDS011;9727;50.200;19.038;2023-08-31T07:55:58;4.28;;;2.28;;
19189;SDS011;9727;50.200;19.038;2023-08-31T07:58:27;2.70;;;2.10;;
19189;SDS011;9727;50.200;19.038;2023-08-31T08:00:54;4.45;;;2.40;;
19189;SDS011;9727;50.200;19.038;2023-08-31T08:03:20;3.45;;;2.22;;
19189;SDS011;9727;50.200;19.038;2023-08-31T08:05:47;2.25;;;1.65;;
19189;SDS011;9727;50.200;19.038;2023-08-31T08:08:14;1.92;;;1.70;;
19189;SDS011;9727;50.200;19.038;2023-08-31T08:10:40;2.05;;;1.48;;
19189;SDS011;9727;50.200;19.038;2023-08-31T08:13:08;3.63;;;1.50;;
19189;SDS011;9727;50.200;19.038;2023-08-31T08:15:39;2.15;;;1.58;;
19189;SDS011;9727;50.200;19.038;2023-08-31T08:18:05;2.08;;;1.58;;
19189;SDS011;9727;50.200;19.038;2023-08-31T08:20:32;2.42;;;1.38;;
19189;SDS011;9727;50.200;19.038;2023-08-31T08:23:06;2.13;;;1.50;;
19189;SDS011;9727;50.200;19.038;2023-08-31T08:25:40;2.80;;;2.00;;
19189;SDS011;9727;50.200;19.038;2023-08-31T08:28:07;2.30;;;1.80;;
19189;SDS011;9727;50.200;19.038;2023-08-31T08:30:39;3.10;;;1.63;;
19189;SDS011;9727;50.200;19.038;2023-08-31T08:33:05;1.90;;;1.48;;
19189;SDS011;9727;50.200;19.038;2023-08-31T08:35:32;2.63;;;1.63;;
19189;SDS011;9727;50.200;19.038;2023-08-31T08:38:04;4.68;;;1.67;;
19189;SDS011;9727;50.200;19.038;2023-08-31T08:40:31;1.98;;;1.75;;
19189;SDS011;9727;50.200;19.038;2023-08-31T08:42:58;5.68;;;2.05;;
19189;SDS011;9727;50.200;19.038;2023-08-31T08:45:30;1.73;;;1.60;;
19189;SDS011;9727;50.200;19.038;2023-08-31T08:48:01;1.85;;;1.60;;
19189;SDS011;9727;50.200;19.038;2023-08-31T08:50:28;1.88;;;1.52;;
19189;SDS011;9727;50.200;19.038;2023-08-31T08:53:01;1.92;;;1.50;;
19189;SDS011;9727;50.200;19.038;2023-08-31T08:55:28;1.88;;;1.70;;
19189;SDS011;9727;50.200;19.038;2023-08-31T08:57:55;2.83;;;1.77;;
19189;SDS011;9727;50.200;19.038;2023-08-31T09:00:21;3.35;;;2.03;;
19189;SDS011;9727;50.200;19.038;2023-08-31T09:02:48;1.90;;;1.70;;
19189;SDS011;9727;50.200;19.038;2023-08-31T09:05:18;4.18;;;1.80;;
19189;SDS011;9727;50.200;19.038;2023-08-31T09:07:59;2.47;;;1.90;;
19189;SDS011;9727;50.200;19.038;2023-08-31T09:10:32;3.15;;;2.28;;
19189;SDS011;9727;50.200;19.038;2023-08-31T09:13:06;2.20;;;2.00;;
19189;SDS011;9727;50.200;19.038;2023-08-31T09:15:43;3.80;;;1.90;;
19189;SDS011;9727;50.200;19.038;2023-08-31T09:18:13;2.55;;;2.00;;
19189;SDS011;9727;50.200;19.038;2023-08-31T09:20:45;3.25;;;1.80;;
19189;SDS011;9727;50.200;19.038;2023-08-31T09:23:15;2.00;;;1.80;;
19189;SDS011;9727;50.200;19.038;2023-08-31T09:25:42;4.32;;;2.10;;
19189;SDS011;9727;50.200;19.038;2023-08-31T09:28:12;2.53;;;1.98;;
19189;SDS011;9727;50.200;19.038;2023-08-31T09:30:40;2.20;;;1.92;;
19189;SDS011;9727;50.200;19.038;2023-08-31T09:33:10;2.25;;;2.05;;
19189;SDS011;9727;50.200;19.038;2023-08-31T09:35:47;2.65;;;2.00;;
19189;SDS011;9727;50.200;19.038;2023-08-31T09:38:15;1.90;;;1.70;;
19189;SDS011;9727;50.200;19.038;2023-08-31T09:40:41;3.10;;;2.00;;
19189;SDS011;9727;50.200;19.038;2023-08-31T09:43:08;2.58;;;2.08;;
19189;SDS011;9727;50.200;19.038;2023-08-31T09:45:38;2.13;;;1.92;;
19189;SDS011;9727;50.200;19.038;2023-08-31T09:48:05;5.22;;;2.10;;
19189;SDS011;9727;50.200;19.038;2023-08-31T09:50:32;3.92;;;2.20;;
19189;SDS011;9727;50.200;19.038;2023-08-31T09:53:05;4.10;;;2.55;;
19189;SDS011;9727;50.200;19.038;2023-08-31T09:55:38;4.63;;;2.50;;
19189;SDS011;9727;50.200;19.038;2023-08-31T09:58:11;4.30;;;2.80;;
19189;SDS011;9727;50.200;19.038;2023-08-31T10:00:38;4.20;;;2.80;;
19189;SDS011;9727;50.200;19.038;2023-08-31T10:03:05;2.70;;;2.40;;
19189;SDS011;9727;50.200;19.038;2023-08-31T10:05:40;3.10;;;2.28;;
19189;SDS011;9727;50.200;19.038;2023-08-31T10:08:16;3.97;;;2.20;;
19189;SDS011;9727;50.200;19.038;2023-08-31T10:10:44;4.53;;;2.70;;
19189;SDS011;9727;50.200;19.038;2023-08-31T10:13:11;3.97;;;2.30;;
19189;SDS011;9727;50.200;19.038;2023-08-31T10:15:41;5.10;;;2.85;;
19189;SDS011;9727;50.200;19.038;2023-08-31T10:18:09;4.80;;;2.97;;
19189;SDS011;9727;50.200;19.038;2023-08-31T10:20:42;3.80;;;2.65;;
19189;SDS011;9727;50.200;19.038;2023-08-31T10:23:10;6.95;;;3.20;;
19189;SDS011;9727;50.200;19.038;2023-08-31T10:28:24;3.85;;;2.88;;
19189;SDS011;9727;50.200;19.038;2023-08-31T10:31:00;4.93;;;2.72;;
19189;SDS011;9727;50.200;19.038;2023-08-31T10:33:27;3.10;;;2.75;;
19189;SDS011;9727;50.200;19.038;2023-08-31T10:35:54;3.97;;;2.50;;
19189;SDS011;9727;50.200;19.038;2023-08-31T10:38:29;2.95;;;2.72;;
19189;SDS011;9727;50.200;19.038;2023-08-31T10:40:59;3.78;;;2.70;;
19189;SDS011;9727;50.200;19.038;2023-08-31T10:43:27;3.92;;;3.13;;
19189;SDS011;9727;50.200;19.038;2023-08-31T10:45:54;4.82;;;3.20;;
19189;SDS011;9727;50.200;19.038;2023-08-31T10:48:20;2.97;;;2.63;;
19189;SDS011;9727;50.200;19.038;2023-08-31T10:50:47;5.43;;;3.50;;
19189;SDS011;9727;50.200;19.038;2023-08-31T10:53:14;5.63;;;3.95;;
19189;SDS011;9727;50.200;19.038;2023-08-31T10:55:51;8.52;;;4.15;;
19189;SDS011;9727;50.200;19.038;2023-08-31T10:58:18;4.72;;;3.70;;
19189;SDS011;9727;50.200;19.038;2023-08-31T11:00:50;4.22;;;3.67;;
19189;SDS011;9727;50.200;19.038;2023-08-31T11:03:17;4.25;;;3.42;;
19189;SDS011;9727;50.200;19.038;2023-08-31T11:05:50;3.40;;;2.90;;
19189;SDS011;9727;50.200;19.038;2023-08-31T11:08:23;5.82;;;3.40;;
19189;SDS011;9727;50.200;19.038;2023-08-31T11:10:51;6.07;;;3.65;;
19189;SDS011;9727;50.200;19.038;2023-08-31T11:13:23;4.75;;;3.80;;
19189;SDS011;9727;50.200;19.038;2023-08-31T11:15:49;6.43;;;3.38;;
19189;SDS011;9727;50.200;19.038;2023-08-31T11:18:18;3.38;;;3.08;;
19189;SDS011;9727;50.200;19.038;2023-08-31T11:20:46;4.45;;;3.10;;
19189;SDS011;9727;50.200;19.038;2023-08-31T11:23:14;10.00;;;6.15;;
19189;SDS011;9727;50.200;19.038;2023-08-31T11:25:40;4.72;;;4.07;;
19189;SDS011;9727;50.200;19.038;2023-08-31T11:28:08;3.20;;;2.90;;
19189;SDS011;9727;50.200;19.038;2023-08-31T11:30:40;3.40;;;3.10;;
19189;SDS011;9727;50.200;19.038;2023-08-31T11:33:09;4.05;;;3.33;;
19189;SDS011;9727;50.200;19.038;2023-08-31T11:35:40;3.58;;;2.88;;
19189;SDS011;9727;50.200;19.038;2023-08-31T11:38:08;7.43;;;2.90;;
19189;SDS011;9727;50.200;19.038;2023-08-31T11:40:41;4.28;;;3.40;;
19189;SDS011;9727;50.200;19.038;2023-08-31T11:43:09;2.90;;;2.60;;
19189;SDS011;9727;50.200;19.038;2023-08-31T11:45:35;3.88;;;2.85;;
19189;SDS011;9727;50.200;19.038;2023-08-31T11:48:04;4.95;;;3.95;;
19189;SDS011;9727;50.200;19.038;2023-08-31T11:50:31;4.18;;;2.95;;
19189;SDS011;9727;50.200;19.038;2023-08-31T11:53:04;4.10;;;3.13;;
19189;SDS011;9727;50.200;19.038;2023-08-31T11:55:31;4.55;;;3.05;;
19189;SDS011;9727;50.200;19.038;2023-08-31T11:58:08;4.07;;;3.17;;
19189;SDS011;9727;50.200;19.038;2023-08-31T12:00:44;4.63;;;3.13;;
19189;SDS011;9727;50.200;19.038;2023-08-31T12:03:11;7.88;;;4.38;;
19189;SDS011;9727;50.200;19.038;2023-08-31T12:05:44;5.15;;;3.95;;
19189;SDS011;9727;50.200;19.038;2023-08-31T12:08:11;5.43;;;3.58;;
19189;SDS011;9727;50.200;19.038;2023-08-31T12:10:39;4.03;;;3.42;;
19189;SDS011;9727;50.200;19.038;2023-08-31T12:13:11;4.55;;;3.33;;
19189;SDS011;9727;50.200;19.038;2023-08-31T12:15:41;5.53;;;3.85;;
19189;SDS011;9727;50.200;19.038;2023-08-31T12:18:08;4.28;;;3.28;;
19189;SDS011;9727;50.200;19.038;2023-08-31T12:20:42;4.18;;;3.00;;
19189;SDS011;9727;50.200;19.038;2023-08-31T12:23:08;3.42;;;3.13;;
19189;SDS011;9727;50.200;19.038;2023-08-31T12:25:48;6.57;;;3.33;;
19189;SDS011;9727;50.200;19.038;2023-08-31T12:28:16;3.90;;;2.70;;
19189;SDS011;9727;50.200;19.038;2023-08-31T12:30:46;4.90;;;2.60;;
19189;SDS011;9727;50.200;19.038;2023-08-31T12:33:13;2.85;;;2.55;;
19189;SDS011;9727;50.200;19.038;2023-08-31T12:35:40;3.67;;;2.30;;
19189;SDS011;9727;50.200;19.038;2023-08-31T12:38:07;3.33;;;2.55;;
19189;SDS011;9727;50.200;19.038;2023-08-31T12:40:39;2.30;;;2.10;;
19189;SDS011;9727;50.200;19.038;2023-08-31T12:43:08;2.55;;;2.35;;
19189;SDS011;9727;50.200;19.038;2023-08-31T12:45:37;3.35;;;2.03;;
19189;SDS011;9727;50.200;19.038;2023-08-31T12:48:07;3.08;;;2.70;;
19189;SDS011;9727;50.200;19.038;2023-08-31T12:50:39;3.55;;;2.10;;
19189;SDS011;9727;50.200;19.038;2023-08-31T12:53:08;2.45;;;2.20;;
19189;SDS011;9727;50.200;19.038;2023-08-31T12:55:39;2.35;;;2.13;;
19189;SDS011;9727;50.200;19.038;2023-08-31T12:58:05;6.95;;;2.17;;
19189;SDS011;9727;50.200;19.038;2023-08-31T13:00:32;6.63;;;2.05;;
19189;SDS011;9727;50.200;19.038;2023-08-31T13:03:05;5.78;;;2.13;;
19189;SDS011;9727;50.200;19.038;2023-08-31T13:05:38;4.13;;;2.42;;
19189;SDS011;9727;50.200;19.038;2023-08-31T13:08:05;2.80;;;2.25;;
19189;SDS011;9727;50.200;19.038;2023-08-31T13:10:32;2.33;;;2.00;;
19189;SDS011;9727;50.200;19.038;2023-08-31T13:13:03;2.35;;;1.85;;
19189;SDS011;9727;50.200;19.038;2023-08-31T13:15:31;3.00;;;1.88;;
19189;SDS011;9727;50.200;19.038;2023-08-31T13:17:59;2.10;;;1.83;;
19189;SDS011;9727;50.200;19.038;2023-08-31T13:20:27;1.77;;;1.67;;
19189;SDS011;9727;50.200;19.038;2023-08-31T13:22:54;3.30;;;1.83;;
19189;SDS011;9727;50.200;19.038;2023-08-31T13:25:20;3.53;;;1.70;;
19189;SDS011;9727;50.200;19.038;2023-08-31T13:27:47;1.77;;;1.67;;
19189;SDS011;9727;50.200;19.038;2023-08-31T13:30:17;2.45;;;1.85;;
19189;SDS011;9727;50.200;19.038;2023-08-31T13:32:47;4.07;;;2.00;;
19189;SDS011;9727;50.200;19.038;2023-08-31T13:35:13;2.28;;;2.00;;
19189;SDS011;9727;50.200;19.038;2023-08-31T13:37:41;3.53;;;1.85;;
19189;SDS011;9727;50.200;19.038;2023-08-31T13:40:08;2.90;;;2.00;;
19189;SDS011;9727;50.200;19.038;2023-08-31T13:42:47;2.75;;;1.63;;
19189;SDS011;9727;50.200;19.038;2023-08-31T13:45:15;2.30;;;2.10;;
19189;SDS011;9727;50.200;19.038;2023-08-31T13:47:44;2.53;;;1.98;;
19189;SDS011;9727;50.200;19.038;2023-08-31T13:50:14;4.32;;;1.77;;
19189;SDS011;9727;50.200;19.038;2023-08-31T13:52:42;3.60;;;1.73;;
19189;SDS011;9727;50.200;19.038;2023-08-31T13:55:11;1.58;;;1.48;;
19189;SDS011;9727;50.200;19.038;2023-08-31T13:57:38;2.45;;;1.50;;
19189;SDS011;9727;50.200;19.038;2023-08-31T14:00:08;4.30;;;1.67;;
19189;SDS011;9727;50.200;19.038;2023-08-31T14:02:45;2.35;;;1.52;;
19189;SDS011;9727;50.200;19.038;2023-08-31T14:05:11;3.88;;;1.33;;
19189;SDS011;9727;50.200;19.038;2023-08-31T14:07:39;1.63;;;1.52;;
19189;SDS011;9727;50.200;19.038;2023-08-31T14:10:09;1.63;;;1.35;;
19189;SDS011;9727;50.200;19.038;2023-08-31T14:12:39;1.88;;;1.52;;
19189;SDS011;9727;50.200;19.038;2023-08-31T14:15:06;3.22;;;1.90;;
19189;SDS011;9727;50.200;19.038;2023-08-31T14:17:33;2.13;;;1.52;;
19189;SDS011;9727;50.200;19.038;2023-08-31T14:20:04;2.80;;;1.40;;
19189;SDS011;9727;50.200;19.038;2023-08-31T14:22:37;2.70;;;1.73;;
19189;SDS011;9727;50.200;19.038;2023-08-31T14:25:09;3.45;;;1.40;;
19189;SDS011;9727;50.200;19.038;2023-08-31T14:27:36;1.42;;;1.27;;
19189;SDS011;9727;50.200;19.038;2023-08-31T14:30:04;2.70;;;1.40;;
19189;SDS011;9727;50.200;19.038;2023-08-31T14:32:36;1.80;;;1.20;;
19189;SDS011;9727;50.200;19.038;2023-08-31T14:35:03;1.75;;;1.60;;
19189;SDS011;9727;50.200;19.038;2023-08-31T14:37:32;2.90;;;1.40;;
19189;SDS011;9727;50.200;19.038;2023-08-31T14:40:02;2.47;;;1.42;;
19189;SDS011;9727;50.200;19.038;2023-08-31T14:42:37;2.35;;;1.30;;
19189;SDS011;9727;50.200;19.038;2023-08-31T14:45:05;3.67;;;1.77;;
19189;SDS011;9727;50.200;19.038;2023-08-31T14:47:41;1.88;;;1.50;;
19189;SDS011;9727;50.200;19.038;2023-08-31T14:50:08;2.25;;;1.27;;